Time;durP1;ratioP1;P1;durP2;ratioP2;P2;SDS_P1;SDS_P2;PMS_P1;PMS_P2;Temp;Humidity;BMP_temperature;BMP_pressure;BME280_temperature;BME280_humidity;BME280_pressure;Samples;Min_cycle;Max_cycle;Signal;HPM_P1;HPM_P2
2020/12/01 00:01:22;;;;;;;;;;;7.40;83.70;;;;;;5084290;28;19917;-82
2020/12/01 00:03:48;;;;;;;;;;;7.40;83.70;;;;;;5054529;28;19917;-82
2020/12/01 00:06:13;;;;;;;;;;;7.40;83.70;;;;;;5055983;28;19915;-82
2020/12/01 00:08:39;;;;;;;;;;;7.40;83.80;;;;;;5057812;28;20280;-82
2020/12/01 00:11:05;;;;;;;;;;;7.40;84.00;;;;;;5076081;28;19955;-82
2020/12/01 00:13:31;;;;;;;;;;;7.40;83.90;;;;;;5059354;28;20003;-82
2020/12/01 00:15:56;;;;;;;;;;;7.40;84.00;;;;;;5040168;28;20322;-82
2020/12/01 00:18:22;;;;;;;;;;;7.40;84.00;;;;;;5037055;28;20345;-82
2020/12/01 00:20:48;;;;;;;;;;;7.40;84.00;;;;;;5053911;28;20274;-82
2020/12/01 00:23:13;;;;;;;;;;;7.40;84.20;;;;;;5055197;28;20141;-82
2020/12/01 00:25:39;;;;;;;;;;;7.40;84.10;;;;;;5070632;28;19930;-82
2020/12/01 00:28:04;;;;;;;;;;;7.40;84.10;;;;;;5038168;28;19928;-82
2020/12/01 00:30:30;;;;;;;;;;;7.40;84.20;;;;;;5055463;28;20331;-82
2020/12/01 00:32:55;;;;;;;;;;;7.40;84.00;;;;;;5038929;28;20029;-82
2020/12/01 00:35:24;;;;;;;;;;;7.40;84.10;;;;;;5073842;28;20026;-82
2020/12/01 00:37:50;;;;;;;;;;;7.40;84.10;;;;;;5073442;28;20337;-82
2020/12/01 00:40:15;;;;;;;;;;;7.40;84.50;;;;;;5073767;28;19956;-82
2020/12/01 00:42:41;;;;;;;;;;;7.40;84.50;;;;;;5055687;28;19942;-82
2020/12/01 00:45:08;;;;;;;;;;;7.40;84.50;;;;;;5038631;28;20301;-82
2020/12/01 00:47:33;;;;;;;;;;;7.50;84.40;;;;;;5073593;28;19908;-82
2020/12/01 00:49:59;;;;;;;;;;;7.50;84.30;;;;;;5055180;28;19912;-82
2020/12/01 00:52:25;;;;;;;;;;;7.50;84.40;;;;;;5073491;28;19934;-82
2020/12/01 00:54:50;;;;;;;;;;;7.50;84.50;;;;;;5060587;28;20011;-82
2020/12/01 00:57:16;;;;;;;;;;;7.50;84.50;;;;;;5058721;28;20381;-82
2020/12/01 00:59:41;;;;;;;;;;;7.50;84.40;;;;;;5093554;28;19915;-82
2020/12/01 01:02:07;;;;;;;;;;;7.60;84.40;;;;;;5074944;28;19908;-82
2020/12/01 01:04:32;;;;;;;;;;;7.60;84.30;;;;;;5074945;28;19924;-82
2020/12/01 01:06:58;;;;;;;;;;;7.60;84.20;;;;;;5093164;28;20315;-82
2020/12/01 01:09:24;;;;;;;;;;;7.60;84.70;;;;;;5093381;28;19909;-82
2020/12/01 01:11:49;;;;;;;;;;;7.60;84.00;;;;;;5074855;28;19969;-82
2020/12/01 01:14:15;;;;;;;;;;;7.60;84.10;;;;;;5058370;28;20346;-82
2020/12/01 01:16:41;;;;;;;;;;;7.60;84.30;;;;;;5058655;28;20002;-82
2020/12/01 01:19:07;;;;;;;;;;;7.70;84.60;;;;;;5057963;28;19916;-82
2020/12/01 01:21:38;;;;;;;;;;;7.70;84.50;;;;;;5093183;28;19916;-82
2020/12/01 01:24:03;;;;;;;;;;;7.70;84.40;;;;;;5092673;28;19938;-82
2020/12/01 01:26:29;;;;;;;;;;;7.80;84.30;;;;;;5074440;28;19928;-82
2020/12/01 01:28:54;;;;;;;;;;;7.80;84.50;;;;;;5073696;28;20370;-82
2020/12/01 01:31:20;;;;;;;;;;;7.70;84.70;;;;;;5092969;28;19959;-82
2020/12/01 01:33:45;;;;;;;;;;;7.70;84.80;;;;;;5092886;28;20397;-82
2020/12/01 01:36:11;;;;;;;;;;;7.80;84.90;;;;;;5074463;28;20413;-82
2020/12/01 01:38:36;;;;;;;;;;;7.80;85.00;;;;;;5074783;28;20364;-82
2020/12/01 01:41:02;;;;;;;;;;;7.80;85.10;;;;;;5074272;28;20003;-82
2020/12/01 01:43:27;;;;;;;;;;;7.80;85.70;;;;;;5074247;28;19916;-82
2020/12/01 01:45:53;;;;;;;;;;;7.80;85.60;;;;;;5074069;28;20387;-83
2020/12/01 01:48:31;;;;;;;;;;;7.80;85.70;;;;;;5092705;28;19999;-82
2020/12/01 01:50:57;;;;;;;;;;;7.80;86.10;;;;;;5092240;28;20404;-82
2020/12/01 01:53:22;;;;;;;;;;;7.80;86.60;;;;;;5074449;28;19908;-82
2020/12/01 01:55:49;;;;;;;;;;;7.80;86.60;;;;;;5060650;28;20392;-82
2020/12/01 01:58:15;;;;;;;;;;;7.80;86.80;;;;;;5054230;28;19912;-82
2020/12/01 02:00:57;;;;;;;;;;;7.80;86.80;;;;;;5037735;28;20275;-82
2020/12/01 02:03:30;;;;;;;;;;;7.80;86.70;;;;;;5054251;28;19909;-82
2020/12/01 02:05:57;;;;;;;;;;;7.80;86.60;;;;;;5053781;28;19927;-83
2020/12/01 02:08:23;;;;;;;;;;;7.90;87.30;;;;;;5072188;28;20759;-82
2020/12/01 02:10:48;;;;;;;;;;;7.90;86.60;;;;;;5054329;28;19916;-82
2020/12/01 02:13:16;;;;;;;;;;;7.90;86.60;;;;;;5038343;28;19921;-83
2020/12/01 02:15:42;;;;;;;;;;;7.90;86.50;;;;;;5054084;28;19920;-82
2020/12/01 02:18:07;;;;;;;;;;;7.90;86.60;;;;;;5053814;28;19912;-82
2020/12/01 02:20:36;;;;;;;;;;;7.90;86.60;;;;;;5054161;28;20007;-82
2020/12/01 02:23:02;;;;;;;;;;;7.90;86.40;;;;;;5037657;28;19913;-82
2020/12/01 02:25:27;;;;;;;;;;;7.90;86.70;;;;;;5106303;23;19973;-87
2020/12/01 02:27:55;;;;;;;;;;;7.90;86.50;;;;;;5112366;28;19922;-87
2020/12/01 02:30:21;;;;;;;;;;;7.90;86.50;;;;;;5094343;28;20357;-87
2020/12/01 02:32:46;;;;;;;;;;;8.00;86.30;;;;;;5112660;28;20006;-87
2020/12/01 02:35:12;;;;;;;;;;;8.00;86.30;;;;;;5094028;28;19957;-87
2020/12/01 02:37:39;;;;;;;;;;;8.00;86.10;;;;;;5094463;28;19912;-87
2020/12/01 02:40:06;;;;;;;;;;;8.10;86.00;;;;;;5094459;28;19908;-88
2020/12/01 02:42:31;;;;;;;;;;;8.10;85.90;;;;;;5116716;28;19907;-87
2020/12/01 02:44:57;;;;;;;;;;;8.10;85.70;;;;;;5097991;28;19915;-87
2020/12/01 02:47:23;;;;;;;;;;;8.10;85.50;;;;;;5098542;28;19920;-87
2020/12/01 02:49:48;;;;;;;;;;;8.20;85.40;;;;;;5116620;28;19912;-87
2020/12/01 02:52:14;;;;;;;;;;;8.20;85.20;;;;;;5097811;28;19922;-87
2020/12/01 02:54:40;;;;;;;;;;;8.20;85.00;;;;;;5098200;28;19916;-87
2020/12/01 02:57:05;;;;;;;;;;;8.30;85.00;;;;;;5080917;28;19912;-87
2020/12/01 02:59:31;;;;;;;;;;;8.30;84.90;;;;;;5098298;28;20283;-87
2020/12/01 03:01:56;;;;;;;;;;;8.30;84.70;;;;;;5080874;28;20837;-87
2020/12/01 03:04:22;;;;;;;;;;;8.30;84.70;;;;;;5097975;28;20026;-88
2020/12/01 03:06:48;;;;;;;;;;;8.30;84.60;;;;;;5098109;28;19916;-87
2020/12/01 03:09:14;;;;;;;;;;;8.30;84.60;;;;;;5097813;28;19951;-87
2020/12/01 03:11:41;;;;;;;;;;;8.30;84.60;;;;;;5116356;28;19994;-88
2020/12/01 03:14:06;;;;;;;;;;;8.30;84.50;;;;;;5115961;28;19916;-88
2020/12/01 03:16:32;;;;;;;;;;;8.30;84.40;;;;;;5097779;28;20007;-87
2020/12/01 03:18:58;;;;;;;;;;;8.30;84.30;;;;;;5097526;28;19908;-87
2020/12/01 03:21:23;;;;;;;;;;;8.30;84.20;;;;;;5097992;28;19915;-87
2020/12/01 03:23:49;;;;;;;;;;;8.40;84.20;;;;;;5097577;28;20288;-88
2020/12/01 03:26:16;;;;;;;;;;;8.40;84.10;;;;;;5063617;28;20018;-87
2020/12/01 03:28:42;;;;;;;;;;;8.40;84.10;;;;;;5077412;28;19916;-88
2020/12/01 03:31:08;;;;;;;;;;;8.40;84.00;;;;;;5095094;28;19909;-87
2020/12/01 03:33:33;;;;;;;;;;;8.40;83.90;;;;;;5095450;28;19912;-87
2020/12/01 03:35:59;;;;;;;;;;;8.40;83.90;;;;;;5060467;28;20258;-88
2020/12/01 03:38:25;;;;;;;;;;;8.40;83.80;;;;;;5095247;28;19908;-87
2020/12/01 03:40:50;;;;;;;;;;;8.40;83.70;;;;;;5077286;28;19919;-87
2020/12/01 03:43:16;;;;;;;;;;;8.40;83.70;;;;;;5094893;28;20332;-88
2020/12/01 03:45:42;;;;;;;;;;;8.40;83.70;;;;;;5095326;28;19999;-87
2020/12/01 03:48:07;;;;;;;;;;;8.40;83.60;;;;;;5076793;28;19912;-87
2020/12/01 03:50:33;;;;;;;;;;;8.40;83.60;;;;;;5095186;28;19961;-87
2020/12/01 03:52:59;;;;;;;;;;;8.40;83.60;;;;;;5093458;28;19912;-88
2020/12/01 03:55:25;;;;;;;;;;;8.40;83.60;;;;;;5115546;28;19920;-88
2020/12/01 03:57:51;;;;;;;;;;;8.40;83.50;;;;;;5115384;28;19908;-87
2020/12/01 04:00:19;;;;;;;;;;;8.40;83.50;;;;;;5115093;28;19916;-88
2020/12/01 04:02:44;;;;;;;;;;;8.40;83.50;;;;;;5097082;28;20282;-87
2020/12/01 04:05:10;;;;;;;;;;;8.40;83.50;;;;;;5096688;28;19918;-88
2020/12/01 04:07:36;;;;;;;;;;;8.40;83.50;;;;;;5115232;28;19911;-88
2020/12/01 04:10:01;;;;;;;;;;;8.30;83.50;;;;;;5114827;28;19908;-88
2020/12/01 04:12:27;;;;;;;;;;;8.40;83.60;;;;;;5115170;28;19908;-88
2020/12/01 04:14:53;;;;;;;;;;;8.40;83.60;;;;;;5096840;28;20014;-87
2020/12/01 04:17:19;;;;;;;;;;;8.40;83.70;;;;;;5079563;28;19912;-88
2020/12/01 04:19:44;;;;;;;;;;;8.40;83.70;;;;;;5115147;28;20382;-88
2020/12/01 04:22:10;;;;;;;;;;;8.40;83.70;;;;;;5096487;28;19933;-88
2020/12/01 04:24:37;;;;;;;;;;;8.40;83.70;;;;;;5096253;28;19928;-87
2020/12/01 04:27:03;;;;;;;;;;;8.40;83.60;;;;;;5096404;28;20049;-88
2020/12/01 04:29:28;;;;;;;;;;;8.40;83.60;;;;;;5096663;28;19957;-88
2020/12/01 04:31:54;;;;;;;;;;;8.40;83.50;;;;;;5113309;28;19923;-87
2020/12/01 04:34:19;;;;;;;;;;;8.40;83.50;;;;;;5079326;28;19939;-88
2020/12/01 04:36:45;;;;;;;;;;;8.40;83.40;;;;;;5096455;28;20434;-88
2020/12/01 04:39:10;;;;;;;;;;;8.40;83.40;;;;;;5079072;28;19958;-88
2020/12/01 04:41:36;;;;;;;;;;;8.40;83.50;;;;;;5096433;28;20272;-88
2020/12/01 04:44:02;;;;;;;;;;;8.40;83.40;;;;;;5095847;28;19912;-88
2020/12/01 04:46:30;;;;;;;;;;;8.40;83.60;;;;;;5096217;28;19912;-88
2020/12/01 04:49:07;;;;;;;;;;;8.40;83.90;;;;;;5096243;28;20353;-88
2020/12/01 04:51:38;;;;;;;;;;;8.30;83.80;;;;;;5114352;28;19915;-88
2020/12/01 04:54:04;;;;;;;;;;;8.30;83.80;;;;;;5114255;28;20281;-87
2020/12/01 04:56:44;;;;;;;;;;;8.30;83.80;;;;;;5113883;28;19911;-88
2020/12/01 04:59:18;;;;;;;;;;;8.30;83.80;;;;;;5111291;28;19912;-88
2020/12/01 05:01:48;;;;;;;;;;;8.30;83.70;;;;;;5096039;28;19933;-88
2020/12/01 05:04:36;;;;;;;;;;;8.30;83.70;;;;;;5095649;28;19912;-88
2020/12/01 05:07:08;;;;;;;;;;;8.30;83.60;;;;;;5113675;28;19914;-88
2020/12/01 05:10:03;;;;;;;;;;;8.30;83.60;;;;;;5114232;28;19919;-88
2020/12/01 05:12:29;;;;;;;;;;;8.30;83.70;;;;;;5080300;28;19998;-88
2020/12/01 05:14:56;;;;;;;;;;;8.30;83.60;;;;;;5084516;28;20026;-87
2020/12/01 05:17:28;;;;;;;;;;;8.30;83.60;;;;;;5090614;28;20260;-88
2020/12/01 05:19:53;;;;;;;;;;;8.30;83.50;;;;;;5111932;28;19916;-87
2020/12/01 05:22:19;;;;;;;;;;;8.30;83.60;;;;;;5112573;28;19941;-86
2020/12/01 05:24:46;;;;;;;;;;;8.20;83.50;;;;;;5089645;28;19927;-87
2020/12/01 05:27:27;;;;;;;;;;;8.30;83.60;;;;;;5092647;28;20357;-87
2020/12/01 05:29:53;;;;;;;;;;;8.20;83.50;;;;;;5106364;28;19923;-87
2020/12/01 05:32:23;;;;;;;;;;;8.20;83.40;;;;;;5107805;28;20345;-87
2020/12/01 05:34:49;;;;;;;;;;;8.20;83.30;;;;;;5111603;28;20365;-87
2020/12/01 05:37:14;;;;;;;;;;;8.30;83.40;;;;;;5094700;28;20395;-87
2020/12/01 05:39:40;;;;;;;;;;;8.20;83.30;;;;;;5078163;28;19912;-87
2020/12/01 05:42:12;;;;;;;;;;;8.20;83.20;;;;;;5077737;28;19962;-87
2020/12/01 05:44:37;;;;;;;;;;;8.20;83.20;;;;;;5083257;28;19908;-86
2020/12/01 05:47:13;;;;;;;;;;;8.20;83.30;;;;;;5094243;28;20318;-87
2020/12/01 05:49:42;;;;;;;;;;;8.20;83.30;;;;;;5094218;28;19912;-88
2020/12/01 05:52:26;;;;;;;;;;;8.20;83.30;;;;;;5112735;28;19985;-88
2020/12/01 05:55:11;;;;;;;;;;;8.20;83.30;;;;;;5094748;28;19924;-88
2020/12/01 05:57:37;;;;;;;;;;;8.10;83.30;;;;;;5094507;28;19911;-88
2020/12/01 06:00:04;;;;;;;;;;;8.10;83.30;;;;;;5081749;28;20007;-88
2020/12/01 06:02:48;;;;;;;;;;;8.10;83.40;;;;;;5079637;28;19916;-88
2020/12/01 06:05:18;;;;;;;;;;;8.10;83.40;;;;;;5104090;28;19911;-88
2020/12/01 06:07:45;;;;;;;;;;;8.10;83.50;;;;;;5112960;28;20396;-88
2020/12/01 06:10:27;;;;;;;;;;;8.10;83.60;;;;;;5111278;28;19908;-88
2020/12/01 06:13:31;;;;;;;;;;;8.10;83.60;;;;;;5094677;28;19916;-88
2020/12/01 06:16:03;;;;;;;;;;;8.10;83.50;;;;;;5022145;28;19928;-87
2020/12/01 06:18:39;;;;;;;;;;;8.10;83.40;;;;;;5029989;28;20003;-87
2020/12/01 06:21:06;;;;;;;;;;;8.10;83.40;;;;;;5073356;28;19916;-87
2020/12/01 06:23:43;;;;;;;;;;;8.20;83.40;;;;;;5094204;28;19915;-88
2020/12/01 06:26:19;;;;;;;;;;;8.20;83.40;;;;;;5082060;28;20189;-88
2020/12/01 06:29:03;;;;;;;;;;;8.20;83.40;;;;;;5092574;28;19916;-88
2020/12/01 06:31:29;;;;;;;;;;;8.20;83.30;;;;;;5075343;28;19913;-88
2020/12/01 06:34:09;;;;;;;;;;;8.20;83.20;;;;;;5124656;28;19918;-88
2020/12/01 06:36:41;;;;;;;;;;;8.20;83.20;;;;;;5100370;28;20004;-87
2020/12/01 06:39:06;;;;;;;;;;;8.20;83.20;;;;;;5089207;28;19934;-90
2020/12/01 06:41:36;;;;;;;;;;;8.20;83.70;;;;;;5083958;28;20377;-87
2020/12/01 06:44:04;;;;;;;;;;;8.20;83.10;;;;;;5103711;28;19939;-87
2020/12/01 06:46:36;;;;;;;;;;;8.20;83.00;;;;;;5083547;28;20379;-87
2020/12/01 06:49:03;;;;;;;;;;;8.30;83.10;;;;;;5084411;28;19912;-87
2020/12/01 06:51:29;;;;;;;;;;;8.30;83.00;;;;;;5105833;28;20530;-87
2020/12/01 06:54:04;;;;;;;;;;;8.30;83.00;;;;;;5092153;28;19963;-86
2020/12/01 06:56:29;;;;;;;;;;;8.30;83.00;;;;;;5090178;28;19999;-87
2020/12/01 06:59:03;;;;;;;;;;;8.30;82.90;;;;;;5085121;28;20006;-87
2020/12/01 07:01:30;;;;;;;;;;;8.30;82.90;;;;;;5086802;28;20357;-87
2020/12/01 07:04:05;;;;;;;;;;;8.30;82.80;;;;;;5093368;28;20383;-87
2020/12/01 07:06:30;;;;;;;;;;;8.30;82.90;;;;;;5111746;28;20293;-87
2020/12/01 07:09:10;;;;;;;;;;;8.30;82.80;;;;;;5088221;28;19912;-86
2020/12/01 07:11:59;;;;;;;;;;;8.30;82.80;;;;;;5111809;28;19922;-84
2020/12/01 07:14:30;;;;;;;;;;;8.30;82.70;;;;;;5101021;28;19915;-83
2020/12/01 07:16:56;;;;;;;;;;;8.40;82.70;;;;;;5085799;28;20372;-85
2020/12/01 07:19:35;;;;;;;;;;;8.40;82.70;;;;;;5109050;28;19964;-85
2020/12/01 07:22:08;;;;;;;;;;;8.40;82.70;;;;;;5105155;28;19912;-85
2020/12/01 07:24:42;;;;;;;;;;;8.40;82.70;;;;;;5111898;28;19927;-85
2020/12/01 07:27:07;;;;;;;;;;;8.40;83.30;;;;;;5092860;28;19965;-87
2020/12/01 07:29:51;;;;;;;;;;;8.40;82.60;;;;;;5115600;28;19916;-87
2020/12/01 07:32:21;;;;;;;;;;;8.40;82.60;;;;;;5095093;28;20388;-86
2020/12/01 07:34:47;;;;;;;;;;;8.40;82.60;;;;;;5095286;28;19989;-87
2020/12/01 07:37:30;;;;;;;;;;;8.40;82.50;;;;;;5077823;28;20354;-84
2020/12/01 07:39:57;;;;;;;;;;;8.40;82.50;;;;;;5077045;28;19912;-84
2020/12/01 07:42:24;;;;;;;;;;;8.40;82.50;;;;;;5096379;28;19919;-86
2020/12/01 07:44:49;;;;;;;;;;;8.40;82.40;;;;;;5076434;28;19908;-86
2020/12/01 07:47:15;;;;;;;;;;;8.50;82.50;;;;;;5072053;28;19962;-86
2020/12/01 07:49:41;;;;;;;;;;;8.50;82.50;;;;;;5094539;28;19978;-86
2020/12/01 07:52:26;;;;;;;;;;;8.50;82.40;;;;;;5107202;28;20320;-86
2020/12/01 07:55:06;;;;;;;;;;;8.50;82.40;;;;;;5076807;28;20277;-85
2020/12/01 07:57:31;;;;;;;;;;;8.50;82.40;;;;;;5081567;28;19916;-86
2020/12/01 07:59:58;;;;;;;;;;;8.50;82.30;;;;;;5059983;28;20326;-86
2020/12/01 08:02:25;;;;;;;;;;;8.50;82.30;;;;;;5089097;28;19966;-86
2020/12/01 08:04:59;;;;;;;;;;;8.50;82.30;;;;;;5076682;28;19912;-86
2020/12/01 08:07:25;;;;;;;;;;;8.60;82.40;;;;;;5094814;28;19947;-86
2020/12/01 08:09:59;;;;;;;;;;;8.60;82.30;;;;;;5085561;28;19958;-85
2020/12/01 08:12:28;;;;;;;;;;;8.60;82.30;;;;;;5097949;28;19907;-85
2020/12/01 08:14:54;;;;;;;;;;;8.60;82.30;;;;;;5097940;28;19911;-86
2020/12/01 08:17:23;;;;;;;;;;;8.60;82.20;;;;;;5115720;28;19964;-86
2020/12/01 08:19:49;;;;;;;;;;;8.60;82.20;;;;;;5078101;28;19919;-85
2020/12/01 08:22:17;;;;;;;;;;;8.60;82.20;;;;;;5077015;28;19912;-86
2020/12/01 08:24:45;;;;;;;;;;;8.70;82.20;;;;;;5089605;23;19924;-83
2020/12/01 08:27:31;;;;;;;;;;;8.70;82.20;;;;;;5096075;28;19953;-83
2020/12/01 08:29:58;;;;;;;;;;;8.70;82.20;;;;;;5076374;28;19916;-83
2020/12/01 08:32:28;;;;;;;;;;;8.70;82.10;;;;;;5093975;28;19934;-84
2020/12/01 08:34:54;;;;;;;;;;;8.70;82.10;;;;;;5080445;28;19964;-84
2020/12/01 08:37:20;;;;;;;;;;;8.70;82.70;;;;;;5075581;28;19912;-83
2020/12/01 08:40:04;;;;;;;;;;;8.70;82.10;;;;;;5075572;28;20298;-83
2020/12/01 08:42:29;;;;;;;;;;;8.80;82.20;;;;;;5076960;28;19908;-84
2020/12/01 08:45:01;;;;;;;;;;;8.80;82.20;;;;;;5075779;28;19908;-83
2020/12/01 08:47:26;;;;;;;;;;;8.80;82.20;;;;;;5093955;28;19912;-84
2020/12/01 08:49:52;;;;;;;;;;;8.80;82.30;;;;;;5074489;28;20362;-84
2020/12/01 08:52:32;;;;;;;;;;;8.80;82.20;;;;;;5093594;28;19920;-84
2020/12/01 08:55:01;;;;;;;;;;;8.90;82.20;;;;;;5095347;28;19978;-84
2020/12/01 08:57:32;;;;;;;;;;;8.80;82.40;;;;;;5094715;28;20273;-84
2020/12/01 09:00:09;;;;;;;;;;;8.90;82.50;;;;;;5103337;28;19916;-83
2020/12/01 09:02:39;;;;;;;;;;;8.90;82.60;;;;;;5096905;28;19907;-83
2020/12/01 09:05:05;;;;;;;;;;;8.90;82.50;;;;;;5092985;28;19919;-83
2020/12/01 09:07:37;;;;;;;;;;;8.90;82.50;;;;;;5087358;28;19911;-83
2020/12/01 09:10:23;;;;;;;;;;;8.90;82.70;;;;;;5080474;28;19912;-83
2020/12/01 09:13:09;;;;;;;;;;;9.00;82.90;;;;;;5115066;28;19912;-83
2020/12/01 09:23:25;;;;;;;;;;;9.00;83.30;;;;;;5102187;28;20011;-83
2020/12/01 09:25:51;;;;;;;;;;;9.00;83.30;;;;;;5102887;28;19923;-83
2020/12/01 09:28:18;;;;;;;;;;;9.00;83.80;;;;;;5085821;28;19920;-83
2020/12/01 09:30:44;;;;;;;;;;;9.00;84.10;;;;;;5084896;28;19908;-83
2020/12/01 09:33:11;;;;;;;;;;;9.00;83.90;;;;;;5113079;28;19908;-84
2020/12/01 09:35:37;;;;;;;;;;;9.00;84.60;;;;;;5112828;28;19919;-83
2020/12/01 09:38:02;;;;;;;;;;;9.00;84.70;;;;;;5095114;28;19957;-83
2020/12/01 09:40:30;;;;;;;;;;;9.10;85.00;;;;;;5077746;28;19937;-83
2020/12/01 09:43:00;;;;;;;;;;;9.10;85.00;;;;;;5095440;28;19916;-84
2020/12/01 09:45:30;;;;;;;;;;;9.10;85.50;;;;;;5092717;28;19915;-84
2020/12/01 09:50:38;;;;;;;;;;;9.10;85.70;;;;;;5088232;28;19924;-84
2020/12/01 10:00:58;;;;;;;;;;;9.20;86.90;;;;;;5095891;28;20014;-83
2020/12/01 10:08:54;;;;;;;;;;;9.20;87.80;;;;;;5113097;28;19915;-84
2020/12/01 10:11:36;;;;;;;;;;;9.30;88.00;;;;;;5078265;28;19923;-84
2020/12/01 10:14:25;;;;;;;;;;;9.30;88.10;;;;;;5095323;28;19916;-84
2020/12/01 10:33:57;;;;;;;;;;;9.50;87.70;;;;;;5112137;28;19916;-84
2020/12/01 10:35:24;;;;;;;;;;;9.50;87.60;;;;;;5111859;28;19955;-83
2020/12/01 10:37:50;;;;;;;;;;;9.50;87.50;;;;;;5112480;28;20002;-83
2020/12/01 10:40:16;;;;;;;;;;;9.60;87.50;;;;;;5112019;28;19916;-83
2020/12/01 10:42:41;;;;;;;;;;;9.60;87.50;;;;;;5077311;28;19912;-84
2020/12/01 10:45:07;;;;;;;;;;;9.60;87.30;;;;;;5110313;28;19998;-83
2020/12/01 10:47:33;;;;;;;;;;;9.60;87.30;;;;;;5077221;28;20316;-84
2020/12/01 10:49:58;;;;;;;;;;;9.60;87.30;;;;;;5078956;28;19920;-84
2020/12/01 10:52:23;;;;;;;;;;;9.60;87.30;;;;;;5056744;28;19955;-84
2020/12/01 10:54:49;;;;;;;;;;;9.60;87.10;;;;;;5073745;28;19920;-84
2020/12/01 10:57:14;;;;;;;;;;;9.60;87.10;;;;;;5073383;28;20250;-84
2020/12/01 10:59:40;;;;;;;;;;;9.70;87.10;;;;;;5090572;28;19923;-84
2020/12/01 11:02:05;;;;;;;;;;;9.70;86.90;;;;;;5096355;28;19915;-84
2020/12/01 11:04:31;;;;;;;;;;;9.60;86.90;;;;;;5097180;28;20428;-84
2020/12/01 11:06:56;;;;;;;;;;;9.60;87.00;;;;;;5098006;28;19912;-84
2020/12/01 11:09:22;;;;;;;;;;;9.70;87.30;;;;;;5097693;28;19950;-84
2020/12/01 11:11:47;;;;;;;;;;;9.60;87.30;;;;;;5115493;28;19920;-84
2020/12/01 11:14:13;;;;;;;;;;;9.70;87.40;;;;;;5097630;28;19927;-82
2020/12/01 11:16:38;;;;;;;;;;;9.70;87.40;;;;;;5116508;28;20002;-82
2020/12/01 11:19:05;;;;;;;;;;;9.70;87.30;;;;;;5081123;28;19919;-82
2020/12/01 11:21:32;;;;;;;;;;;9.70;87.20;;;;;;5097675;28;19907;-82
2020/12/01 11:23:58;;;;;;;;;;;9.80;87.20;;;;;;5110961;28;19916;-82
2020/12/01 11:26:23;;;;;;;;;;;9.80;87.10;;;;;;5088760;28;20011;-82
2020/12/01 11:28:49;;;;;;;;;;;9.80;87.10;;;;;;5112007;28;19912;-81
2020/12/01 11:31:19;;;;;;;;;;;9.80;87.00;;;;;;5097283;28;19954;-82
2020/12/01 11:33:56;;;;;;;;;;;9.80;86.90;;;;;;5097629;28;19908;-82
2020/12/01 11:36:21;;;;;;;;;;;9.80;86.80;;;;;;5115513;28;20384;-82
2020/12/01 11:38:47;;;;;;;;;;;9.90;86.80;;;;;;5097627;28;20002;-82
2020/12/01 11:41:14;;;;;;;;;;;9.80;86.70;;;;;;5112183;28;19969;-82
2020/12/01 11:43:40;;;;;;;;;;;9.90;86.60;;;;;;5077245;28;19973;-82
2020/12/01 11:46:05;;;;;;;;;;;9.90;86.60;;;;;;5077116;28;20416;-82
2020/12/01 11:48:31;;;;;;;;;;;9.90;86.60;;;;;;5076684;28;19999;-81
2020/12/01 11:50:56;;;;;;;;;;;9.90;86.60;;;;;;5060278;28;19920;-81
2020/12/01 11:53:22;;;;;;;;;;;9.90;86.50;;;;;;5059987;28;19916;-82
2020/12/01 11:55:47;;;;;;;;;;;9.90;86.50;;;;;;5063916;28;19930;-83
2020/12/01 11:58:13;;;;;;;;;;;9.90;86.40;;;;;;5092297;28;20272;-82
2020/12/01 12:00:38;;;;;;;;;;;9.90;86.30;;;;;;5114599;28;19912;-82
2020/12/01 12:03:04;;;;;;;;;;;9.90;86.30;;;;;;5097069;28;19911;-82
2020/12/01 12:05:29;;;;;;;;;;;9.90;86.10;;;;;;5079387;28;19911;-81
2020/12/01 12:07:55;;;;;;;;;;;9.90;86.20;;;;;;5096030;28;20315;-82
2020/12/01 12:10:20;;;;;;;;;;;9.90;86.10;;;;;;5095796;28;19912;-82
2020/12/01 12:12:48;;;;;;;;;;;10.00;86.10;;;;;;5063893;28;20024;-82
2020/12/01 12:15:13;;;;;;;;;;;9.90;85.90;;;;;;5094292;28;20007;-82
2020/12/01 12:17:39;;;;;;;;;;;9.90;85.80;;;;;;5094614;28;20007;-82
2020/12/01 12:20:05;;;;;;;;;;;9.90;85.70;;;;;;5059773;28;20373;-83
2020/12/01 12:22:30;;;;;;;;;;;9.90;85.70;;;;;;5109679;28;19915;-83
2020/12/01 12:24:56;;;;;;;;;;;9.90;85.70;;;;;;5095637;28;19935;-83
2020/12/01 12:27:21;;;;;;;;;;;9.90;85.60;;;;;;5096133;28;20258;-83
2020/12/01 12:29:47;;;;;;;;;;;9.90;85.50;;;;;;5079371;28;19954;-83
2020/12/01 12:32:12;;;;;;;;;;;10.00;85.40;;;;;;5074917;28;19961;-83
2020/12/01 12:34:38;;;;;;;;;;;10.00;85.40;;;;;;5075508;28;19923;-82
2020/12/01 12:37:03;;;;;;;;;;;10.00;85.30;;;;;;5076148;28;19920;-82
2020/12/01 12:39:29;;;;;;;;;;;10.00;85.40;;;;;;5075857;28;20429;-82
2020/12/01 12:41:54;;;;;;;;;;;10.00;85.20;;;;;;5075996;28;19916;-82
2020/12/01 12:44:20;;;;;;;;;;;10.00;85.20;;;;;;5075354;28;19919;-82
2020/12/01 12:46:45;;;;;;;;;;;10.00;85.10;;;;;;5093922;28;20045;-82
2020/12/01 12:49:11;;;;;;;;;;;10.00;85.10;;;;;;5075589;28;19935;-82
2020/12/01 12:51:36;;;;;;;;;;;10.00;85.00;;;;;;5076055;28;20000;-83
2020/12/01 12:54:02;;;;;;;;;;;10.00;84.90;;;;;;5059250;28;19947;-83
2020/12/01 12:56:28;;;;;;;;;;;10.00;84.90;;;;;;5094971;28;19923;-82
2020/12/01 12:58:54;;;;;;;;;;;10.00;84.80;;;;;;5075785;28;19914;-83
2020/12/01 13:01:20;;;;;;;;;;;10.10;84.90;;;;;;5058778;28;19962;-83
2020/12/01 13:03:46;;;;;;;;;;;10.10;84.80;;;;;;5075757;28;19912;-83
2020/12/01 13:06:12;;;;;;;;;;;10.10;84.70;;;;;;5075502;28;19961;-85
2020/12/01 13:08:37;;;;;;;;;;;10.10;84.70;;;;;;5076104;28;19920;-82
2020/12/01 13:11:03;;;;;;;;;;;10.10;84.60;;;;;;5075849;28;19916;-82
2020/12/01 13:13:29;;;;;;;;;;;10.10;84.50;;;;;;5075063;28;20003;-82
2020/12/01 13:15:54;;;;;;;;;;;10.10;84.50;;;;;;5075318;28;19920;-82
2020/12/01 13:18:20;;;;;;;;;;;10.10;84.50;;;;;;5093184;28;19918;-82
2020/12/01 13:20:45;;;;;;;;;;;10.10;84.40;;;;;;5058625;28;19937;-82
2020/12/01 13:23:11;;;;;;;;;;;10.10;84.30;;;;;;5058486;28;19999;-82
2020/12/01 13:25:36;;;;;;;;;;;10.10;84.20;;;;;;5092479;28;20001;-82
2020/12/01 13:28:02;;;;;;;;;;;10.10;84.10;;;;;;5094625;28;19934;-82
2020/12/01 13:30:27;;;;;;;;;;;10.10;84.00;;;;;;5094985;28;19994;-82
2020/12/01 13:32:53;;;;;;;;;;;10.10;83.90;;;;;;5113521;28;19908;-82
2020/12/01 13:35:22;;;;;;;;;;;10.10;83.90;;;;;;5113072;28;19918;-82
2020/12/01 13:37:48;;;;;;;;;;;10.10;83.80;;;;;;5095146;28;20280;-82
2020/12/01 13:40:14;;;;;;;;;;;10.10;83.70;;;;;;5094900;28;19916;-82
2020/12/01 13:42:40;;;;;;;;;;;10.10;83.40;;;;;;5113331;28;19947;-82
2020/12/01 13:45:06;;;;;;;;;;;10.10;83.50;;;;;;5095078;28;20548;-82
2020/12/01 13:47:32;;;;;;;;;;;10.10;83.40;;;;;;5094832;28;19963;-82
2020/12/01 13:49:58;;;;;;;;;;;10.10;83.20;;;;;;5078014;28;20008;-82
2020/12/01 13:52:25;;;;;;;;;;;10.10;83.10;;;;;;5083594;28;19965;-82
2020/12/01 13:54:51;;;;;;;;;;;10.20;83.10;;;;;;5093281;28;19924;-82
2020/12/01 13:57:16;;;;;;;;;;;10.20;83.00;;;;;;5075817;28;19926;-82
2020/12/01 13:59:42;;;;;;;;;;;10.20;82.90;;;;;;5097804;28;19966;-82
2020/12/01 14:02:07;;;;;;;;;;;10.20;82.80;;;;;;5058885;28;20266;-82
2020/12/01 14:04:33;;;;;;;;;;;10.20;82.70;;;;;;5064136;28;19915;-82
2020/12/01 14:06:58;;;;;;;;;;;10.20;82.70;;;;;;5094658;28;20289;-82
2020/12/01 14:09:24;;;;;;;;;;;10.20;82.60;;;;;;5094573;28;19912;-82
2020/12/01 14:11:51;;;;;;;;;;;10.20;82.50;;;;;;5063547;28;19924;-82
2020/12/01 14:14:16;;;;;;;;;;;10.20;82.50;;;;;;5073987;28;19916;-82
2020/12/01 14:16:42;;;;;;;;;;;10.20;82.50;;;;;;5057454;28;19919;-82
2020/12/01 14:19:08;;;;;;;;;;;10.20;82.50;;;;;;5088761;28;20726;-82
2020/12/01 14:21:33;;;;;;;;;;;10.20;82.30;;;;;;5085211;28;19920;-82
2020/12/01 14:23:59;;;;;;;;;;;10.20;82.20;;;;;;5099982;22;20284;-84
2020/12/01 14:26:24;;;;;;;;;;;10.10;82.20;;;;;;5075566;28;19916;-83
2020/12/01 14:28:53;;;;;;;;;;;10.10;82.20;;;;;;5112701;28;19912;-83
2020/12/01 14:31:19;;;;;;;;;;;10.10;82.20;;;;;;5112185;28;19960;-84
2020/12/01 14:33:45;;;;;;;;;;;10.10;82.10;;;;;;5074187;28;19916;-83
2020/12/01 14:36:11;;;;;;;;;;;10.10;81.90;;;;;;5056896;28;19926;-83
2020/12/01 14:38:36;;;;;;;;;;;10.10;82.00;;;;;;5073695;28;19916;-84
2020/12/01 14:41:02;;;;;;;;;;;10.10;81.90;;;;;;5074160;28;19915;-83
2020/12/01 14:43:27;;;;;;;;;;;10.10;81.90;;;;;;5073623;28;19961;-84
2020/12/01 14:45:54;;;;;;;;;;;10.10;81.90;;;;;;5057194;28;19912;-83
2020/12/01 14:48:32;;;;;;;;;;;10.10;81.90;;;;;;5073533;28;19958;-83
2020/12/01 14:50:58;;;;;;;;;;;10.10;81.70;;;;;;5074003;28;19908;-83
2020/12/01 14:53:27;;;;;;;;;;;10.10;81.60;;;;;;5073483;28;20014;-83
2020/12/01 14:56:12;;;;;;;;;;;10.10;81.70;;;;;;5079822;28;20399;-83
2020/12/01 14:58:37;;;;;;;;;;;10.10;81.70;;;;;;5112003;28;20006;-83
2020/12/01 15:01:24;;;;;;;;;;;10.10;81.70;;;;;;5093303;28;19955;-83
2020/12/01 15:03:52;;;;;;;;;;;10.10;81.70;;;;;;5112384;28;20310;-83
2020/12/01 15:06:32;;;;;;;;;;;10.10;81.70;;;;;;5111892;28;19908;-83
2020/12/01 15:09:12;;;;;;;;;;;10.10;81.70;;;;;;5112262;28;19908;-83
2020/12/01 15:11:38;;;;;;;;;;;10.10;81.50;;;;;;5111900;28;19908;-83
2020/12/01 15:14:03;;;;;;;;;;;10.10;81.50;;;;;;5093892;28;19914;-83